Time;durP1;ratioP1;P1;durP2;ratioP2;P2;SDS_P1;SDS_P2;PMS_P1;PMS_P2;Temp;Humidity;BMP_temperature;BMP_pressure;BME280_temperature;BME280_humidity;BME280_pressure;Samples;Min_cycle;Max_cycle;Signal;HPM_P1;HPM_P2
2023/10/04 00:00:59;;;;;;;;;;;;;;;16.66;55.07;101512.81;6083148;23;6940;-76
2023/10/04 00:03:28;;;;;;;;;;;;;;;16.66;55.12;101528.34;6104808;23;6779;-74
2023/10/04 00:05:54;;;;;;;;;;;;;;;16.69;55.15;101522.41;6107876;23;7736;-78
2023/10/04 00:08:23;;;;;;;;;;;;;;;16.70;55.19;101522.44;6109929;23;6782;-74
2023/10/04 00:10:49;;;;;;;;;;;;;;;16.71;55.48;101524.25;6084088;23;6830;-78
2023/10/04 00:13:15;;;;;;;;;;;;;;;16.71;55.07;101542.38;6108487;23;7005;-75
2023/10/04 00:15:41;;;;;;;;;;;;;;;16.69;55.20;101536.22;6084311;23;6924;-74
2023/10/04 00:18:07;;;;;;;;;;;;;;;16.68;55.53;101531.88;6107634;23;6884;-74
2023/10/04 00:20:33;;;;;;;;;;;;;;;16.69;55.97;101538.81;6083964;23;6929;-75
2023/10/04 00:23:02;;;;;;;;;;;;;;;16.69;56.09;101537.94;6082616;23;7357;-74
2023/10/04 00:25:29;;;;;;;;;;;;;;;16.69;55.86;101538.81;6083437;23;6779;-76
2023/10/04 00:27:58;;;;;;;;;;;;;;;16.68;55.79;101542.22;6108490;23;6783;-76
2023/10/04 00:30:26;;;;;;;;;;;;;;;16.65;56.00;101547.28;6109724;23;6803;-73
2023/10/04 00:32:53;;;;;;;;;;;;;;;16.62;55.67;101548.03;6112225;23;7086;-78
2023/10/04 00:35:21;;;;;;;;;;;;;;;16.60;56.16;101551.38;6086337;23;6960;-75
2023/10/04 00:37:56;;;;;;;;;;;;;;;16.57;56.05;101553.84;6086724;23;6974;-74
2023/10/04 00:40:31;;;;;;;;;;;;;;;16.55;56.43;101551.19;6106124;23;7175;-76
2023/10/04 00:43:02;;;;;;;;;;;;;;;16.56;56.72;101562.44;6096579;23;7229;-73
2023/10/04 00:45:32;;;;;;;;;;;;;;;16.56;56.39;101559.84;6090249;23;8002;-73
2023/10/04 00:47:59;;;;;;;;;;;;;;;16.56;56.93;101559.84;6091805;23;6831;-73
2023/10/04 00:50:34;;;;;;;;;;;;;;;16.58;56.69;101556.50;6089033;23;7005;-73
2023/10/04 00:53:10;;;;;;;;;;;;;;;16.58;56.90;101560.78;6091769;23;6775;-73
2023/10/04 00:55:42;;;;;;;;;;;;;;;16.58;56.82;101563.38;6115790;23;6933;-72
2023/10/04 00:58:10;;;;;;;;;;;;;;;16.56;56.61;101573.63;6092640;23;6783;-73
2023/10/04 01:00:43;;;;;;;;;;;;;;;16.55;56.93;101569.28;6091015;23;6779;-73
2023/10/04 01:03:09;;;;;;;;;;;;;;;16.55;56.79;101565.84;6092100;23;6957;-73
2023/10/04 01:05:47;;;;;;;;;;;;;;;16.55;56.81;101561.53;6060267;23;7263;-73
2023/10/04 01:08:20;;;;;;;;;;;;;;;16.56;57.04;101572.78;6084898;23;6902;-73
2023/10/04 01:10:49;;;;;;;;;;;;;;;16.53;56.96;101560.59;6062474;23;6783;-73
2023/10/04 01:13:19;;;;;;;;;;;;;;;16.53;56.88;101570.94;6085715;23;7250;-73
2023/10/04 01:15:45;;;;;;;;;;;;;;;16.52;56.98;101567.47;6039882;23;6975;-73
2023/10/04 01:18:12;;;;;;;;;;;;;;;16.49;57.26;101567.34;6061891;23;6910;-73
2023/10/04 01:20:39;;;;;;;;;;;;;;;16.47;57.16;101561.22;6063077;23;7006;-73
2023/10/04 01:23:12;;;;;;;;;;;;;;;16.45;57.15;101569.72;6061914;23;6994;-73
2023/10/04 01:25:43;;;;;;;;;;;;;;;16.43;57.02;101566.19;6061730;23;6951;-73
2023/10/04 01:28:13;;;;;;;;;;;;;;;16.41;57.18;101568.69;6063853;23;6775;-73
2023/10/04 01:30:41;;;;;;;;;;;;;;;16.39;57.37;101570.34;6089331;23;7193;-73
2023/10/04 01:33:15;;;;;;;;;;;;;;;16.37;57.19;101562.53;6062669;23;6976;-72
2023/10/04 01:35:48;;;;;;;;;;;;;;;16.37;57.53;101572.00;6065157;23;7008;-73
2023/10/04 01:38:15;;;;;;;;;;;;;;;16.36;57.93;101571.09;6061667;23;7057;-73
2023/10/04 01:40:46;;;;;;;;;;;;;;;16.36;57.80;101565.91;6063489;23;6779;-73
2023/10/04 01:43:15;;;;;;;;;;;;;;;16.36;58.02;101568.50;6064909;23;6776;-73
2023/10/04 01:45:50;;;;;;;;;;;;;;;16.37;57.79;101566.81;6062497;23;7204;-73
2023/10/04 01:48:20;;;;;;;;;;;;;;;16.37;58.43;101567.72;6062841;23;6966;-73
2023/10/04 01:50:52;;;;;;;;;;;;;;;16.38;57.82;101573.75;6063481;23;6779;-73
2023/10/04 01:53:24;;;;;;;;;;;;;;;16.38;58.10;101577.25;6065117;23;6771;-73
2023/10/04 01:55:50;;;;;;;;;;;;;;;16.38;58.00;101576.34;6064644;23;6779;-73
2023/10/04 01:58:18;;;;;;;;;;;;;;;16.38;57.90;101577.25;6063852;23;7162;-73
2023/10/04 02:00:44;;;;;;;;;;;;;;;16.38;58.29;101576.34;6037400;23;6979;-73
2023/10/04 02:03:10;;;;;;;;;;;;;;;16.40;57.92;101581.59;6062694;23;6763;-73
2023/10/04 02:05:40;;;;;;;;;;;;;;;16.42;57.97;101580.84;6092626;23;6918;-73
2023/10/04 02:08:09;;;;;;;;;;;;;;;16.42;57.87;101580.84;6068894;23;7272;-73
2023/10/04 02:10:36;;;;;;;;;;;;;;;16.42;57.97;101574.78;6068190;23;6978;-73
2023/10/04 02:13:06;;;;;;;;;;;;;;;16.44;58.04;101573.13;6092187;23;6779;-74
2023/10/04 02:15:37;;;;;;;;;;;;;;;16.45;57.97;101574.91;6092593;23;6821;-73
2023/10/04 02:18:04;;;;;;;;;;;;;;;16.45;57.99;101575.78;6090891;23;7849;-74
2023/10/04 02:20:34;;;;;;;;;;;;;;;16.44;58.11;101571.44;6092212;23;6830;-73
2023/10/04 02:23:03;;;;;;;;;;;;;;;16.45;57.99;101580.97;6117543;23;6779;-73
2023/10/04 02:25:29;;;;;;;;;;;;;;;16.44;57.72;101576.63;6093156;23;6958;-73
2023/10/04 02:28:01;;;;;;;;;;;;;;;16.44;58.26;101579.22;6118414;23;6838;-73
2023/10/04 02:30:28;;;;;;;;;;;;;;;16.43;58.18;101574.84;6093078;23;7723;-73
2023/10/04 02:32:53;;;;;;;;;;;;;;;16.42;57.91;101569.59;6093639;23;7346;-73
2023/10/04 02:35:28;;;;;;;;;;;;;;;16.43;58.30;101577.44;6092671;23;6903;-73
2023/10/04 02:38:09;;;;;;;;;;;;;;;16.42;58.06;101570.50;6069937;23;7130;-73
2023/10/04 02:40:37;;;;;;;;;;;;;;;16.43;58.28;101577.44;6095160;23;7189;-73
2023/10/04 02:43:04;;;;;;;;;;;;;;;16.44;58.14;101574.03;6090975;23;6770;-74
2023/10/04 02:45:30;;;;;;;;;;;;;;;16.45;58.25;101573.22;6114903;23;7838;-73
2023/10/04 02:47:56;;;;;;;;;;;;;;;16.45;58.09;101570.63;6092343;23;6897;-73
2023/10/04 02:50:23;;;;;;;;;;;;;;;16.46;58.40;101571.50;6091419;23;6775;-73
2023/10/04 02:52:50;;;;;;;;;;;;;;;16.45;58.21;101580.97;6089992;23;7272;-73
2023/10/04 02:55:18;;;;;;;;;;;;;;;16.44;57.87;101568.84;6088938;23;7039;-73
2023/10/04 02:57:46;;;;;;;;;;;;;;;16.42;57.98;101565.31;6067586;23;7241;-73
2023/10/04 03:00:16;;;;;;;;;;;;;;;16.42;57.97;101559.25;6092560;23;6778;-73
2023/10/04 03:02:48;;;;;;;;;;;;;;;16.39;58.30;101562.59;6061576;23;11541;-75
2023/10/04 03:05:18;;;;;;;;;;;;;;;16.37;58.40;101556.47;6063418;23;6935;-75
2023/10/04 03:07:44;;;;;;;;;;;;;;;16.35;57.87;101555.53;6087511;23;6775;-75
2023/10/04 03:10:11;;;;;;;;;;;;;;;16.32;58.07;101557.97;6061280;23;6783;-74
2023/10/04 03:12:38;;;;;;;;;;;;;;;16.32;58.22;101563.13;6060958;23;6962;-75
2023/10/04 03:15:05;;;;;;;;;;;;;;;16.29;58.26;101563.91;6086355;23;7224;-74
2023/10/04 03:17:31;;;;;;;;;;;;;;;16.27;57.93;101565.53;6088355;23;6834;-75
2023/10/04 03:19:57;;;;;;;;;;;;;;;16.24;58.53;101561.13;6063352;23;7085;-75
2023/10/04 03:22:23;;;;;;;;;;;;;;;16.24;58.54;101565.41;6087309;23;6771;-74
2023/10/04 03:24:50;;;;;;;;;;;;;;;16.21;58.67;101571.31;6087296;23;6791;-75
2023/10/04 03:27:16;;;;;;;;;;;;;;;16.20;58.23;101569.56;6063213;23;6779;-75
2023/10/04 03:29:43;;;;;;;;;;;;;;;16.19;58.36;101572.97;6089175;23;7313;-75
2023/10/04 03:32:09;;;;;;;;;;;;;;;16.17;58.27;101579.78;6063129;23;6783;-75
2023/10/04 03:34:35;;;;;;;;;;;;;;;16.15;58.31;101581.41;6109024;23;6942;-74
2023/10/04 03:37:08;;;;;;;;;;;;;;;16.14;58.72;101584.81;6109320;23;6755;-75
2023/10/04 03:39:35;;;;;;;;;;;;;;;16.12;58.71;101582.97;6110540;23;6783;-75
2023/10/04 03:42:01;;;;;;;;;;;;;;;16.10;58.68;101578.63;6088808;23;7615;-75
2023/10/04 03:44:27;;;;;;;;;;;;;;;16.10;58.57;101585.50;6109349;23;6819;-75
2023/10/04 03:46:56;;;;;;;;;;;;;;;16.09;58.54;101591.47;6088006;23;6949;-75
2023/10/04 03:49:24;;;;;;;;;;;;;;;16.08;58.78;101584.53;6110108;23;6960;-76
2023/10/04 03:51:52;;;;;;;;;;;;;;;16.06;58.77;101587.03;6110290;23;6850;-75
2023/10/04 03:54:18;;;;;;;;;;;;;;;16.04;58.31;101578.34;6110268;23;6851;-75
2023/10/04 03:56:44;;;;;;;;;;;;;;;16.03;58.67;101592.09;6087797;23;6911;-75
2023/10/04 03:59:10;;;;;;;;;;;;;;;16.00;58.47;101591.97;6086367;23;7108;-75
2023/10/04 04:01:37;;;;;;;;;;;;;;;16.00;58.53;101591.06;6110949;23;6779;-75
2023/10/04 04:04:04;;;;;;;;;;;;;;;15.95;58.88;101589.19;6059658;23;7368;-76
2023/10/04 04:06:30;;;;;;;;;;;;;;;15.94;58.60;101592.59;6062890;23;6779;-76
2023/10/04 04:08:58;;;;;;;;;;;;;;;15.90;58.75;101595.81;6063763;23;6766;-75
2023/10/04 04:11:25;;;;;;;;;;;;;;;15.88;58.84;101601.69;6062199;23;7028;-76
2023/10/04 04:13:50;;;;;;;;;;;;;;;15.85;58.92;101597.31;6051652;23;6934;-76
2023/10/04 04:16:19;;;;;;;;;;;;;;;15.83;58.85;101594.63;6135359;23;6747;-73
2023/10/04 04:18:47;;;;;;;;;;;;;;;15.81;59.04;101585.03;6113200;23;7015;-74
2023/10/04 04:21:14;;;;;;;;;;;;;;;15.78;58.41;101590.06;6109523;23;6981;-74
2023/10/04 04:23:41;;;;;;;;;;;;;;;15.76;58.87;101599.47;6087911;23;6815;-73
2023/10/04 04:26:07;;;;;;;;;;;;;;;15.73;58.86;101601.88;6133622;23;6901;-74
2023/10/04 04:28:41;;;;;;;;;;;;;;;15.69;58.89;101603.44;6136030;23;6859;-75
2023/10/04 04:31:14;;;;;;;;;;;;;;;15.66;58.55;101606.78;6086123;23;7393;-76
2023/10/04 04:33:41;;;;;;;;;;;;;;;15.65;58.79;101589.53;6133308;23;6779;-75
2023/10/04 04:36:17;;;;;;;;;;;;;;;15.63;59.01;101574.75;6109774;23;7203;-78
2023/10/04 04:38:44;;;;;;;;;;;;;;;15.63;59.26;101580.78;6084534;23;7124;-74
2023/10/04 04:41:13;;;;;;;;;;;;;;;15.61;59.30;101576.38;6085413;23;6814;-78
2023/10/04 04:43:39;;;;;;;;;;;;;;;15.62;59.37;101585.91;6109114;23;6968;-74
2023/10/04 04:46:13;;;;;;;;;;;;;;;15.61;59.46;101577.25;6058856;23;7233;-75
2023/10/04 04:48:40;;;;;;;;;;;;;;;15.60;59.42;101570.31;6087912;23;6989;-74
2023/10/04 04:51:18;;;;;;;;;;;;;;;15.60;59.22;101580.66;6092672;23;6907;-74
2023/10/04 04:53:49;;;;;;;;;;;;;;;15.60;59.35;101575.50;6093389;23;6970;-74
2023/10/04 04:56:15;;;;;;;;;;;;;;;15.58;59.23;101579.72;6115175;23;7052;-74
2023/10/04 04:58:56;;;;;;;;;;;;;;;15.57;59.37;101577.03;6117056;23;7159;-74
2023/10/04 05:01:21;;;;;;;;;;;;;;;15.53;59.17;101581.19;6093201;23;6988;-73
2023/10/04 05:03:50;;;;;;;;;;;;;;;15.50;59.51;101581.03;6114869;23;6763;-75
2023/10/04 05:06:22;;;;;;;;;;;;;;;15.49;59.50;101572.41;6137442;23;6775;-74
2023/10/04 05:08:49;;;;;;;;;;;;;;;15.49;59.69;101571.53;6111615;23;6992;-74
2023/10/04 05:11:15;;;;;;;;;;;;;;;15.49;59.59;101568.94;6093230;23;6758;-73
2023/10/04 05:13:41;;;;;;;;;;;;;;;15.51;59.92;101577.66;6140353;23;6921;-74
2023/10/04 05:16:07;;;;;;;;;;;;;;;15.48;59.21;101569.75;6112691;23;6821;-74
2023/10/04 05:18:33;;;;;;;;;;;;;;;15.48;59.61;101577.50;6112511;23;7236;-74
2023/10/04 05:21:00;;;;;;;;;;;;;;;15.46;59.54;101579.16;6071602;23;6967;-87
2023/10/04 05:23:29;;;;;;;;;;;;;;;15.47;59.31;101581.78;6063802;23;7091;-90
2023/10/04 05:25:56;;;;;;;;;;;;;;;15.43;58.98;101582.47;6087216;23;6795;-91
2023/10/04 05:28:24;;;;;;;;;;;;;;;15.44;59.06;101599.72;6086560;23;7080;-90
2023/10/04 05:30:51;;;;;;;;;;;;;;;15.40;59.61;101592.63;6086814;23;8605;-90
2023/10/04 05:33:22;;;;;;;;;;;;;;;15.39;59.35;101598.63;6087038;23;8594;-87
2023/10/04 05:35:53;;;;;;;;;;;;;;;15.38;60.08;101590.00;6063194;23;8389;-91
2023/10/04 05:38:20;;;;;;;;;;;;;;;15.37;59.38;101593.41;6087416;23;6968;-90
2023/10/04 05:40:57;;;;;;;;;;;;;;;15.34;59.56;101589.78;6086411;23;6891;-91
2023/10/04 05:43:23;;;;;;;;;;;;;;;15.32;59.97;101579.38;6040721;23;8403;-90
2023/10/04 05:45:53;;;;;;;;;;;;;;;15.31;59.30;101582.75;6087455;23;8299;-89
2023/10/04 05:48:19;;;;;;;;;;;;;;;15.30;59.75;101593.91;6041296;23;6945;-89
2023/10/04 05:50:50;;;;;;;;;;;;;;;15.32;59.14;101607.78;6082471;23;6923;-91
2023/10/04 05:53:19;;;;;;;;;;;;;;;15.28;59.62;101611.03;6047665;23;6743;-91
2023/10/04 05:55:49;;;;;;;;;;;;;;;15.29;60.10;101620.56;6093501;23;6946;-89
2023/10/04 05:58:17;;;;;;;;;;;;;;;15.27;59.87;101624.75;6046344;23;6948;-90
2023/10/04 06:00:46;;;;;;;;;;;;;;;15.29;59.72;101633.47;6073563;23;8527;-90
2023/10/04 06:03:16;;;;;;;;;;;;;;;15.28;59.84;101634.28;6097820;23;7028;-91
2023/10/04 06:05:43;;;;;;;;;;;;;;;15.30;59.75;101632.66;6101406;23;7155;-73
2023/10/04 06:08:18;;;;;;;;;;;;;;;15.28;60.25;101629.13;6118698;23;6966;-73
2023/10/04 06:10:46;;;;;;;;;;;;;;;15.29;60.18;101633.47;6123893;23;7248;-73
2023/10/04 06:13:12;;;;;;;;;;;;;;;15.29;59.71;101625.72;6122409;23;6826;-73
2023/10/04 06:15:44;;;;;;;;;;;;;;;15.32;59.73;101636.19;6122373;23;6929;-73
2023/10/04 06:18:12;;;;;;;;;;;;;;;15.34;59.66;101625.94;6146515;23;8392;-73
2023/10/04 06:20:40;;;;;;;;;;;;;;;15.37;60.14;101639.00;6096364;23;7117;-73
2023/10/04 06:23:09;;;;;;;;;;;;;;;15.40;59.95;101641.72;6122939;23;6778;-73
2023/10/04 06:25:44;;;;;;;;;;;;;;;15.45;59.77;101641.94;6146170;23;6972;-73
2023/10/04 06:28:10;;;;;;;;;;;;;;;15.48;60.21;101636.94;6146085;23;6802;-73
2023/10/04 06:30:37;;;;;;;;;;;;;;;15.52;60.23;101639.72;6121308;23;6767;-73
2023/10/04 06:33:07;;;;;;;;;;;;;;;15.57;60.14;101650.28;6122298;23;6936;-72
2023/10/04 06:35:33;;;;;;;;;;;;;;;15.60;59.74;101645.25;6123774;23;7008;-71
2023/10/04 06:38:08;;;;;;;;;;;;;;;15.66;59.53;101642.97;6148875;23;6845;-73
2023/10/04 06:40:35;;;;;;;;;;;;;;;15.71;59.95;101650.03;6123558;23;7037;-73
2023/10/04 06:43:04;;;;;;;;;;;;;;;15.74;59.52;101651.06;6150033;23;6883;-71
2023/10/04 06:45:30;;;;;;;;;;;;;;;15.78;59.64;101649.53;6151289;23;7008;-72
2023/10/04 06:48:00;;;;;;;;;;;;;;;15.81;59.87;101654.81;6101419;23;7112;-73
2023/10/04 06:50:35;;;;;;;;;;;;;;;15.86;60.05;101655.94;6125896;23;6802;-72
2023/10/04 06:53:03;;;;;;;;;;;;;;;15.90;59.54;101644.94;6125705;23;6947;-74
2023/10/04 06:55:31;;;;;;;;;;;;;;;15.95;59.88;101661.56;6123692;23;7022;-72
2023/10/04 06:57:56;;;;;;;;;;;;;;;15.99;59.57;101665.19;6122460;23;6779;-74
2023/10/04 07:00:30;;;;;;;;;;;;;;;16.05;59.67;101672.34;6121780;23;7196;-72
2023/10/04 07:03:01;;;;;;;;;;;;;;;16.09;59.57;101674.22;6125898;23;6774;-71
2023/10/04 07:05:38;;;;;;;;;;;;;;;16.15;59.84;101682.28;6101326;23;7041;-73
2023/10/04 07:08:06;;;;;;;;;;;;;;;16.21;59.45;101685.13;6128006;23;6775;-72
2023/10/04 07:10:34;;;;;;;;;;;;;;;16.27;59.56;101689.69;6098707;23;6962;-72
2023/10/04 07:13:02;;;;;;;;;;;;;;;16.33;59.65;101689.09;6124289;23;6766;-72
2023/10/04 07:15:36;;;;;;;;;;;;;;;16.38;59.70;101691.09;6099573;23;6961;-73
2023/10/04 07:18:12;;;;;;;;;;;;;;;16.44;59.17;101686.97;6123030;23;7170;-72
2023/10/04 07:20:39;;;;;;;;;;;;;;;16.49;59.08;101691.53;6099682;23;6974;-73
2023/10/04 07:23:08;;;;;;;;;;;;;;;16.57;59.15;101694.50;6150693;23;6936;-71
2023/10/04 07:25:47;;;;;;;;;;;;;;;16.64;59.47;101695.63;6122816;23;6778;-71
2023/10/04 07:28:12;;;;;;;;;;;;;;;16.70;59.13;101702.78;6127170;23;7128;-72
2023/10/04 07:30:40;;;;;;;;;;;;;;;16.77;59.15;101704.81;6124302;23;7068;-72
2023/10/04 07:33:09;;;;;;;;;;;;;;;16.84;58.77;101711.16;6102011;23;6999;-73
2023/10/04 07:35:35;;;;;;;;;;;;;;;16.90;59.27;101709.69;6126198;23;7301;-71
2023/10/04 07:38:04;;;;;;;;;;;;;;;16.94;59.00;101709.00;6126380;23;6779;-72
2023/10/04 07:40:30;;;;;;;;;;;;;;;17.01;59.13;101717.06;6127932;23;6770;-73
2023/10/04 07:42:56;;;;;;;;;;;;;;;17.06;58.55;101711.25;6126163;23;7244;-73
2023/10/04 07:45:31;;;;;;;;;;;;;;;17.14;58.62;101718.47;6122931;23;6890;-76
2023/10/04 07:47:57;;;;;;;;;;;;;;;17.20;58.45;101722.22;6121646;23;6894;-75
2023/10/04 07:50:24;;;;;;;;;;;;;;;17.27;58.36;101719.88;6118903;23;7031;-75
2023/10/04 07:52:54;;;;;;;;;;;;;;;17.32;58.58;101708.88;6120720;23;6898;-76
2023/10/04 07:55:20;;;;;;;;;;;;;;;17.40;58.72;101710.91;6093983;23;7264;-76
2023/10/04 07:57:49;;;;;;;;;;;;;;;17.45;58.21;101707.69;6120544;23;6822;-76
2023/10/04 08:00:16;;;;;;;;;;;;;;;17.52;57.93;101711.41;6120496;23;8474;-75
2023/10/04 08:02:51;;;;;;;;;;;;;;;17.58;58.40;101705.56;6096540;23;6964;-76
2023/10/04 08:05:25;;;;;;;;;;;;;;;17.66;58.11;101709.38;6122581;23;7003;-75
2023/10/04 08:07:58;;;;;;;;;;;;;;;17.74;57.74;101702.78;6147549;23;6787;-76
2023/10/04 08:10:29;;;;;;;;;;;;;;;17.83;57.94;101704.84;6147141;23;6774;-76
2023/10/04 08:13:01;;;;;;;;;;;;;;;17.93;57.75;101705.19;6098416;23;7022;-76
2023/10/04 08:15:31;;;;;;;;;;;;;;;18.01;57.58;101706.38;6146115;23;7021;-76
2023/10/04 08:17:58;;;;;;;;;;;;;;;18.09;57.69;101710.19;6122136;23;6847;-76
2023/10/04 08:20:29;;;;;;;;;;;;;;;18.17;57.00;101708.75;6120959;23;6787;-76
2023/10/04 08:23:05;;;;;;;;;;;;;;;18.24;57.06;101706.38;6122180;23;6787;-76
2023/10/04 08:25:32;;;;;;;;;;;;;;;18.33;57.14;101717.09;6146680;23;6843;-76
2023/10/04 08:27:57;;;;;;;;;;;;;;;18.41;56.91;101710.47;6096497;23;7146;-76
2023/10/04 08:30:25;;;;;;;;;;;;;;;18.51;56.96;101709.13;6145809;23;6892;-76
2023/10/04 08:32:52;;;;;;;;;;;;;;;18.61;56.87;101712.91;6122255;23;6775;-76
2023/10/04 08:35:24;;;;;;;;;;;;;;;18.69;56.70;101716.66;6121069;23;6969;-76
2023/10/04 08:38:00;;;;;;;;;;;;;;;18.81;56.71;101721.44;6123753;23;6775;-76
2023/10/04 08:40:28;;;;;;;;;;;;;;;18.91;56.62;101722.59;6097600;23;8445;-77
2023/10/04 08:42:56;;;;;;;;;;;;;;;19.01;56.52;101716.94;6121679;23;6957;-77
2023/10/04 08:45:29;;;;;;;;;;;;;;;19.12;56.25;101721.59;6121414;23;6828;-76
2023/10/04 08:47:57;;;;;;;;;;;;;;;19.23;56.17;101725.47;6123674;23;7165;-76
2023/10/04 08:50:50;;;;;;;;;;;;;;;19.36;55.87;101718.06;6119101;23;6842;-76
2023/10/04 08:54:09;;;;;;;;;;;;;;;19.49;55.83;101725.44;6147018;23;6778;-75
2023/10/04 08:56:54;;;;;;;;;;;;;;;19.59;55.44;101717.91;6127882;23;7239;-75
2023/10/04 08:59:22;;;;;;;;;;;;;;;19.68;54.94;101724.31;6122132;23;7294;-73
2023/10/04 09:01:50;;;;;;;;;;;;;;;19.78;54.75;101719.41;6097640;23;6973;-74
2023/10/04 09:04:18;;;;;;;;;;;;;;;19.85;54.62;101719.63;6123466;23;6775;-74
2023/10/04 09:06:47;;;;;;;;;;;;;;;19.90;54.35;101724.97;6123134;23;6842;-74
2023/10/04 09:09:15;;;;;;;;;;;;;;;19.94;54.27;101725.97;6122083;23;6946;-74
2023/10/04 09:11:41;;;;;;;;;;;;;;;19.97;54.00;101720.84;6096976;23;7047;-71
2023/10/04 09:14:08;;;;;;;;;;;;;;;19.98;54.02;101722.63;6121763;23;6978;-72
2023/10/04 09:16:34;;;;;;;;;;;;;;;20.01;54.26;101722.72;6097761;23;7228;-71
2023/10/04 09:19:18;;;;;;;;;;;;;;;20.05;54.26;101716.78;6098132;23;6929;-72
2023/10/04 09:21:45;;;;;;;;;;;;;;;20.11;53.92;101716.06;6123385;23;6770;-72
2023/10/04 09:24:14;;;;;;;;;;;;;;;20.19;53.70;101718.91;6098023;23;6962;-74
2023/10/04 09:26:54;;;;;;;;;;;;;;;20.26;53.80;101718.22;6121015;23;6850;-71
2023/10/04 09:29:36;;;;;;;;;;;;;;;20.33;53.67;101725.38;6121712;23;7161;-72
2023/10/04 09:32:04;;;;;;;;;;;;;;;20.43;53.52;101723.94;6098392;23;6778;-71
2023/10/04 09:34:30;;;;;;;;;;;;;;;20.56;53.21;101719.94;6091924;23;6894;-74
2023/10/04 09:36:56;;;;;;;;;;;;;;;20.70;52.75;101722.06;6095382;23;6779;-72
2023/10/04 09:39:27;;;;;;;;;;;;;;;20.80;52.05;101730.13;6093722;23;6775;-73
2023/10/04 09:41:56;;;;;;;;;;;;;;;20.90;51.71;101728.72;6069390;23;7403;-72
2023/10/04 09:44:31;;;;;;;;;;;;;;;21.03;51.37;101726.41;6093912;23;7190;-72
2023/10/04 09:47:00;;;;;;;;;;;;;;;21.16;51.55;101722.41;6120526;23;6964;-72
2023/10/04 09:49:31;;;;;;;;;;;;;;;21.27;51.24;101713.13;6118308;23;6940;-72
2023/10/04 09:52:07;;;;;;;;;;;;;;;21.38;51.25;101713.41;6095753;23;6783;-73
2023/10/04 09:54:34;;;;;;;;;;;;;;;21.47;51.16;101704.91;6092285;23;6958;-74
2023/10/04 09:57:06;;;;;;;;;;;;;;;21.56;51.21;101702.50;6095540;23;6961;-72
2023/10/04 09:59:34;;;;;;;;;;;;;;;21.70;50.88;101700.25;6119314;23;6804;-75
2023/10/04 10:02:02;;;;;;;;;;;;;;;21.86;51.01;101692.78;6077063;23;6966;-72
2023/10/04 10:04:41;;;;;;;;;;;;;;;22.03;50.34;101698.34;6094173;23;6804;-72
2023/10/04 10:07:15;;;;;;;;;;;;;;;22.23;50.35;101698.78;6070787;23;6963;-72
2023/10/04 10:10:04;;;;;;;;;;;;;;;22.59;49.81;101684.66;6070891;23;7040;-71
2023/10/04 10:12:32;;;;;;;;;;;;;;;23.05;49.91;101680.25;6093978;23;6977;-71
2023/10/04 10:15:01;;;;;;;;;;;;;;;23.50;48.66;101684.44;6070471;23;8592;-73
2023/10/04 10:17:30;;;;;;;;;;;;;;;23.84;47.53;101674.47;6069685;23;6962;-73
2023/10/04 10:19:57;;;;;;;;;;;;;;;24.16;47.43;101681.00;6070261;23;6957;-73
2023/10/04 10:22:23;;;;;;;;;;;;;;;24.50;46.65;101670.00;6093712;23;7258;-74
2023/10/04 10:24:57;;;;;;;;;;;;;;;24.92;46.42;101688.78;6116700;23;6814;-74
2023/10/04 10:27:27;;;;;;;;;;;;;;;25.38;45.80;101677.75;6120968;23;6771;-73
2023/10/04 10:29:53;;;;;;;;;;;;;;;25.88;44.59;101686.81;6120207;23;6960;-72
2023/10/04 10:32:22;;;;;;;;;;;;;;;26.07;43.65;101686.88;6095635;23;6951;-75
2023/10/04 10:35:05;;;;;;;;;;;;;;;25.99;43.26;101691.25;6120633;23;6782;-72
2023/10/04 10:37:38;;;;;;;;;;;;;;;25.84;42.98;101677.16;6071491;23;7149;-72
2023/10/04 10:40:08;;;;;;;;;;;;;;;25.75;42.93;101680.63;6097232;23;7208;-73
2023/10/04 10:43:11;;;;;;;;;;;;;;;25.52;42.67;101684.00;6093620;23;6795;-74
2023/10/04 10:45:37;;;;;;;;;;;;;;;25.24;42.62;101689.03;6093854;23;7002;-73
2023/10/04 10:48:08;;;;;;;;;;;;;;;25.03;42.73;101694.09;6095455;23;6786;-73
2023/10/04 10:50:37;;;;;;;;;;;;;;;24.87;42.68;101693.09;6093417;23;6984;-75
2023/10/04 10:53:11;;;;;;;;;;;;;;;24.84;43.08;101698.31;6070941;23;7032;-73
2023/10/04 10:55:40;;;;;;;;;;;;;;;24.74;42.50;101692.06;6095741;23;6858;-73
2023/10/04 10:58:07;;;;;;;;;;;;;;;24.60;42.22;101690.19;6094940;23;6930;-74
2023/10/04 11:00:35;;;;;;;;;;;;;;;24.46;42.53;101699.66;6094426;23;6787;-73
2023/10/04 11:03:05;;;;;;;;;;;;;;;24.31;42.73;101710.84;6120849;23;6779;-73
2023/10/04 11:05:31;;;;;;;;;;;;;;;24.13;42.81;101705.41;6094763;23;6771;-72
2023/10/04 11:07:58;;;;;;;;;;;;;;;24.04;42.89;101699.13;6094126;23;6762;-72
2023/10/04 11:10:25;;;;;;;;;;;;;;;24.03;42.34;101699.97;6093879;23;6793;-72
2023/10/04 11:12:58;;;;;;;;;;;;;;;24.07;42.71;101688.75;6094905;23;6786;-73
2023/10/04 11:15:26;;;;;;;;;;;;;;;24.19;42.76;101680.13;6094279;23;6974;-77
2023/10/04 11:17:53;;;;;;;;;;;;;;;24.26;42.13;101690.72;6092901;23;6775;-76
2023/10/04 11:20:20;;;;;;;;;;;;;;;24.33;42.31;101706.47;6093996;23;6782;-76
2023/10/04 11:22:49;;;;;;;;;;;;;;;24.31;42.57;101703.88;6067947;23;6773;-76
2023/10/04 11:25:16;;;;;;;;;;;;;;;24.28;41.70;101709.06;6092502;23;7031;-77
2023/10/04 11:27:50;;;;;;;;;;;;;;;24.24;42.08;101700.31;6093126;23;6958;-76
2023/10/04 11:30:17;;;;;;;;;;;;;;;24.20;42.36;101702.88;6070192;23;7581;-78
2023/10/04 11:32:46;;;;;;;;;;;;;;;24.19;42.53;101691.50;6092889;23;6882;-78
2023/10/04 11:35:17;;;;;;;;;;;;;;;24.26;41.89;101695.97;6093007;23;6967;-78
2023/10/04 11:37:48;;;;;;;;;;;;;;;24.20;41.82;101677.53;6094261;23;6934;-77
2023/10/04 11:40:19;;;;;;;;;;;;;;;24.14;42.18;101685.31;6115834;23;6989;-78
2023/10/04 11:42:46;;;;;;;;;;;;;;;24.05;41.77;101685.22;6091942;23;6808;-77
2023/10/04 11:45:23;;;;;;;;;;;;;;;23.99;42.03;101671.16;6088679;23;7078;-77
2023/10/04 11:48:10;;;;;;;;;;;;;;;24.18;42.23;101663.56;6116803;23;6928;-77
2023/10/04 11:50:56;;;;;;;;;;;;;;;24.48;42.17;101661.22;6067739;23;6958;-77
2023/10/04 11:53:39;;;;;;;;;;;;;;;24.69;41.25;101650.97;6093185;23;6858;-77
2023/10/04 11:56:07;;;;;;;;;;;;;;;24.81;41.03;101644.97;6091313;23;6779;-78
2023/10/04 11:58:49;;;;;;;;;;;;;;;24.94;41.13;101642.47;6090344;23;6806;-76
2023/10/04 12:01:20;;;;;;;;;;;;;;;25.04;40.80;101640.78;6092606;23;7130;-77
2023/10/04 12:03:56;;;;;;;;;;;;;;;25.16;40.59;101637.38;6092626;23;6846;-78
2023/10/04 12:06:27;;;;;;;;;;;;;;;25.29;40.67;101626.09;6094348;23;6775;-77
2023/10/04 12:08:54;;;;;;;;;;;;;;;25.36;40.04;101627.88;6092835;23;6823;-79
2023/10/04 12:11:25;;;;;;;;;;;;;;;25.28;39.69;101624.34;6093183;23;6830;-79
2023/10/04 12:13:52;;;;;;;;;;;;;;;25.17;39.63;101629.53;6117664;23;6770;-77
2023/10/04 12:16:18;;;;;;;;;;;;;;;25.02;39.57;101630.31;6093148;23;6827;-76
2023/10/04 12:18:44;;;;;;;;;;;;;;;24.84;39.56;101625.78;6093265;23;6771;-76
2023/10/04 12:21:12;;;;;;;;;;;;;;;24.68;40.05;101620.41;6092858;23;6767;-76
2023/10/04 12:23:38;;;;;;;;;;;;;;;24.55;40.18;101632.50;6093878;23;7377;-74
2023/10/04 12:26:04;;;;;;;;;;;;;;;24.48;40.01;101622.81;6071240;23;6990;-72
2023/10/04 12:28:30;;;;;;;;;;;;;;;24.43;40.14;101628.88;6120926;23;7080;-74
2023/10/04 12:31:02;;;;;;;;;;;;;;;24.36;40.64;101617.47;6095928;23;7010;-75
2023/10/04 12:33:30;;;;;;;;;;;;;;;24.29;40.75;101615.66;6095742;23;6962;-74
2023/10/04 12:35:57;;;;;;;;;;;;;;;24.25;40.78;101620.88;6096439;23;6959;-73
2023/10/04 12:38:24;;;;;;;;;;;;;;;24.22;40.72;101615.56;6096578;23;6975;-74
2023/10/04 12:40:50;;;;;;;;;;;;;;;24.18;40.71;101616.41;6096142;23;8420;-75
2023/10/04 12:43:16;;;;;;;;;;;;;;;24.18;40.73;101612.91;6096567;23;6778;-75
2023/10/04 12:45:44;;;;;;;;;;;;;;;24.17;40.28;101619.00;6120925;23;6771;-72
2023/10/04 12:48:16;;;;;;;;;;;;;;;24.12;40.26;101616.34;6096125;23;6949;-74
2023/10/04 12:50:49;;;;;;;;;;;;;;;24.04;40.42;101613.63;6119559;23;6919;-74
2023/10/04 12:53:16;;;;;;;;;;;;;;;23.99;40.88;101620.53;6095218;23;6783;-72
2023/10/04 12:55:47;;;;;;;;;;;;;;;23.93;40.49;101623.94;6095477;23;6779;-74
2023/10/04 12:58:14;;;;;;;;;;;;;;;23.83;40.65;101625.59;6094524;23;6783;-73
2023/10/04 13:00:41;;;;;;;;;;;;;;;23.73;40.43;101628.94;6094588;23;7098;-73